sensor_id;sensor_type;location;lat;lon;timestamp;P1;durP1;ratioP1;P2;durP2;ratioP2
72813;SDS011;60945;48.516;-2.768;2023-04-10T00:01:47;5.82;;;2.80;;
72813;SDS011;60945;48.516;-2.768;2023-04-10T00:04:12;6.57;;;2.83;;
72813;SDS011;60945;48.516;-2.768;2023-04-10T00:06:39;3.83;;;2.40;;
72813;SDS011;60945;48.516;-2.768;2023-04-10T00:09:06;4.35;;;2.60;;
72813;SDS011;60945;48.516;-2.768;2023-04-10T00:11:32;7.70;;;3.15;;
72813;SDS011;60945;48.516;-2.768;2023-04-10T00:13:57;6.35;;;3.10;;
72813;SDS011;60945;48.516;-2.768;2023-04-10T00:16:23;7.82;;;3.28;;
72813;SDS011;60945;48.516;-2.768;2023-04-10T00:18:49;5.35;;;3.10;;
72813;SDS011;60945;48.516;-2.768;2023-04-10T00:21:15;6.30;;;2.88;;
72813;SDS011;60945;48.516;-2.768;2023-04-10T00:23:41;5.75;;;2.90;;
72813;SDS011;60945;48.516;-2.768;2023-04-10T00:26:07;7.05;;;2.95;;
72813;SDS011;60945;48.516;-2.768;2023-04-10T00:28:33;4.15;;;2.80;;
72813;SDS011;60945;48.516;-2.768;2023-04-10T00:31:02;6.32;;;3.53;;
72813;SDS011;60945;48.516;-2.768;2023-04-10T00:33:30;4.65;;;2.92;;
72813;SDS011;60945;48.516;-2.768;2023-04-10T00:35:56;5.82;;;3.20;;
72813;SDS011;60945;48.516;-2.768;2023-04-10T00:38:22;4.38;;;2.75;;
72813;SDS011;60945;48.516;-2.768;2023-04-10T00:40:47;4.93;;;3.05;;
72813;SDS011;60945;48.516;-2.768;2023-04-10T00:43:13;6.53;;;2.97;;
72813;SDS011;60945;48.516;-2.768;2023-04-10T00:45:39;4.65;;;2.58;;
72813;SDS011;60945;48.516;-2.768;2023-04-10T00:48:05;6.15;;;2.80;;
72813;SDS011;60945;48.516;-2.768;2023-04-10T00:50:31;4.88;;;2.90;;
72813;SDS011;60945;48.516;-2.768;2023-04-10T00:52:57;6.20;;;2.47;;
72813;SDS011;60945;48.516;-2.768;2023-04-10T00:55:23;4.75;;;2.80;;
72813;SDS011;60945;48.516;-2.768;2023-04-10T00:57:49;5.53;;;2.95;;
72813;SDS011;60945;48.516;-2.768;2023-04-10T01:00:16;5.43;;;2.90;;
72813;SDS011;60945;48.516;-2.768;2023-04-10T01:02:43;7.88;;;3.10;;
72813;SDS011;60945;48.516;-2.768;2023-04-10T01:05:09;5.95;;;2.85;;
72813;SDS011;60945;48.516;-2.768;2023-04-10T01:13:01;6.88;;;3.10;;
72813;SDS011;60945;48.516;-2.768;2023-04-10T01:15:34;5.70;;;3.03;;
72813;SDS011;60945;48.516;-2.768;2023-04-10T01:20:36;4.88;;;3.22;;
72813;SDS011;60945;48.516;-2.768;2023-04-10T01:26:02;6.75;;;3.58;;
72813;SDS011;60945;48.516;-2.768;2023-04-10T01:31:01;5.85;;;3.58;;
72813;SDS011;60945;48.516;-2.768;2023-04-10T01:33:28;5.97;;;3.60;;
72813;SDS011;60945;48.516;-2.768;2023-04-10T01:36:02;6.55;;;3.22;;
72813;SDS011;60945;48.516;-2.768;2023-04-10T01:38:30;9.13;;;3.60;;
72813;SDS011;60945;48.516;-2.768;2023-04-10T01:40:57;5.93;;;3.00;;
72813;SDS011;60945;48.516;-2.768;2023-04-10T01:43:25;5.25;;;3.20;;
72813;SDS011;60945;48.516;-2.768;2023-04-10T01:45:53;7.38;;;3.47;;
72813;SDS011;60945;48.516;-2.768;2023-04-10T01:48:21;7.00;;;3.60;;
72813;SDS011;60945;48.516;-2.768;2023-04-10T01:50:47;6.03;;;3.63;;
72813;SDS011;60945;48.516;-2.768;2023-04-10T01:53:13;7.28;;;3.80;;
72813;SDS011;60945;48.516;-2.768;2023-04-10T01:55:40;6.70;;;3.80;;
72813;SDS011;60945;48.516;-2.768;2023-04-10T01:58:06;6.32;;;4.15;;
72813;SDS011;60945;48.516;-2.768;2023-04-10T02:00:41;5.80;;;4.00;;
72813;SDS011;60945;48.516;-2.768;2023-04-10T02:03:10;7.32;;;3.97;;
72813;SDS011;60945;48.516;-2.768;2023-04-10T02:05:45;6.78;;;3.80;;
72813;SDS011;60945;48.516;-2.768;2023-04-10T02:08:34;5.88;;;3.90;;
72813;SDS011;60945;48.516;-2.768;2023-04-10T02:11:12;7.57;;;4.20;;
72813;SDS011;60945;48.516;-2.768;2023-04-10T02:14:01;7.72;;;4.03;;
72813;SDS011;60945;48.516;-2.768;2023-04-10T02:16:32;6.72;;;4.30;;
72813;SDS011;60945;48.516;-2.768;2023-04-10T02:18:59;7.13;;;4.25;;
72813;SDS011;60945;48.516;-2.768;2023-04-10T02:21:27;7.68;;;3.92;;
72813;SDS011;60945;48.516;-2.768;2023-04-10T02:23:54;5.90;;;4.10;;
72813;SDS011;60945;48.516;-2.768;2023-04-10T02:26:21;7.65;;;3.50;;
72813;SDS011;60945;48.516;-2.768;2023-04-10T02:28:47;7.93;;;4.20;;
72813;SDS011;60945;48.516;-2.768;2023-04-10T02:31:12;8.38;;;3.97;;
72813;SDS011;60945;48.516;-2.768;2023-04-10T02:33:38;7.78;;;3.80;;
72813;SDS011;60945;48.516;-2.768;2023-04-10T02:36:04;6.35;;;3.35;;
72813;SDS011;60945;48.516;-2.768;2023-04-10T02:38:30;6.15;;;3.40;;
72813;SDS011;60945;48.516;-2.768;2023-04-10T02:40:56;7.40;;;3.72;;
72813;SDS011;60945;48.516;-2.768;2023-04-10T02:43:24;6.32;;;3.85;;
72813;SDS011;60945;48.516;-2.768;2023-04-10T02:45:50;5.60;;;3.55;;
72813;SDS011;60945;48.516;-2.768;2023-04-10T02:48:16;6.93;;;3.28;;
72813;SDS011;60945;48.516;-2.768;2023-04-10T02:50:42;5.30;;;3.10;;
72813;SDS011;60945;48.516;-2.768;2023-04-10T02:53:11;6.38;;;3.20;;
72813;SDS011;60945;48.516;-2.768;2023-04-10T02:55:38;8.13;;;3.65;;
72813;SDS011;60945;48.516;-2.768;2023-04-10T02:58:04;8.38;;;3.58;;
72813;SDS011;60945;48.516;-2.768;2023-04-10T03:00:29;7.72;;;3.47;;
72813;SDS011;60945;48.516;-2.768;2023-04-10T03:02:55;5.45;;;3.13;;
72813;SDS011;60945;48.516;-2.768;2023-04-10T03:05:21;6.15;;;3.40;;
72813;SDS011;60945;48.516;-2.768;2023-04-10T03:07:46;8.80;;;3.00;;
72813;SDS011;60945;48.516;-2.768;2023-04-10T03:10:12;7.00;;;3.03;;
72813;SDS011;60945;48.516;-2.768;2023-04-10T03:12:38;5.43;;;3.47;;
72813;SDS011;60945;48.516;-2.768;2023-04-10T03:15:03;5.60;;;2.80;;
72813;SDS011;60945;48.516;-2.768;2023-04-10T03:17:30;5.22;;;3.22;;
72813;SDS011;60945;48.516;-2.768;2023-04-10T03:19:55;5.35;;;3.58;;
72813;SDS011;60945;48.516;-2.768;2023-04-10T03:22:21;5.57;;;3.00;;
72813;SDS011;60945;48.516;-2.768;2023-04-10T03:24:47;6.28;;;3.40;;
72813;SDS011;60945;48.516;-2.768;2023-04-10T03:27:12;5.78;;;3.33;;
72813;SDS011;60945;48.516;-2.768;2023-04-10T03:29:38;5.68;;;3.30;;
72813;SDS011;60945;48.516;-2.768;2023-04-10T03:32:03;6.10;;;3.05;;
72813;SDS011;60945;48.516;-2.768;2023-04-10T03:34:30;7.70;;;2.97;;
72813;SDS011;60945;48.516;-2.768;2023-04-10T03:36:55;5.95;;;2.78;;
72813;SDS011;60945;48.516;-2.768;2023-04-10T03:39:21;6.40;;;3.08;;
72813;SDS011;60945;48.516;-2.768;2023-04-10T03:41:47;6.40;;;3.53;;
72813;SDS011;60945;48.516;-2.768;2023-04-10T03:44:13;5.80;;;3.42;;
72813;SDS011;60945;48.516;-2.768;2023-04-10T03:46:38;6.03;;;3.22;;
72813;SDS011;60945;48.516;-2.768;2023-04-10T03:49:04;5.40;;;3.45;;
72813;SDS011;60945;48.516;-2.768;2023-04-10T03:51:30;6.78;;;3.25;;
72813;SDS011;60945;48.516;-2.768;2023-04-10T03:53:56;7.13;;;3.90;;
72813;SDS011;60945;48.516;-2.768;2023-04-10T03:56:21;7.47;;;3.20;;
72813;SDS011;60945;48.516;-2.768;2023-04-10T03:58:47;6.07;;;3.60;;
72813;SDS011;60945;48.516;-2.768;2023-04-10T04:01:13;7.07;;;3.80;;
72813;SDS011;60945;48.516;-2.768;2023-04-10T04:03:38;6.72;;;3.30;;
72813;SDS011;60945;48.516;-2.768;2023-04-10T04:06:04;6.07;;;2.95;;
72813;SDS011;60945;48.516;-2.768;2023-04-10T04:08:30;5.72;;;3.15;;
72813;SDS011;60945;48.516;-2.768;2023-04-10T04:10:56;7.53;;;3.55;;
72813;SDS011;60945;48.516;-2.768;2023-04-10T04:13:21;5.05;;;3.25;;
72813;SDS011;60945;48.516;-2.768;2023-04-10T04:15:48;5.22;;;3.10;;
72813;SDS011;60945;48.516;-2.768;2023-04-10T04:18:13;5.45;;;3.22;;
72813;SDS011;60945;48.516;-2.768;2023-04-10T04:20:39;7.93;;;3.72;;
72813;SDS011;60945;48.516;-2.768;2023-04-10T04:23:05;4.70;;;3.10;;
72813;SDS011;60945;48.516;-2.768;2023-04-10T04:25:30;4.85;;;3.13;;
72813;SDS011;60945;48.516;-2.768;2023-04-10T04:27:56;6.28;;;2.70;;
72813;SDS011;60945;48.516;-2.768;2023-04-10T04:30:21;5.60;;;3.00;;
72813;SDS011;60945;48.516;-2.768;2023-04-10T04:32:47;6.03;;;3.38;;
72813;SDS011;60945;48.516;-2.768;2023-04-10T04:35:13;6.47;;;3.20;;
72813;SDS011;60945;48.516;-2.768;2023-04-10T04:37:38;7.10;;;3.40;;
72813;SDS011;60945;48.516;-2.768;2023-04-10T04:40:04;5.18;;;3.00;;
72813;SDS011;60945;48.516;-2.768;2023-04-10T04:42:30;5.50;;;2.90;;
72813;SDS011;60945;48.516;-2.768;2023-04-10T04:44:56;6.40;;;3.75;;
72813;SDS011;60945;48.516;-2.768;2023-04-10T04:47:22;6.10;;;3.33;;
72813;SDS011;60945;48.516;-2.768;2023-04-10T04:49:48;6.70;;;3.72;;
72813;SDS011;60945;48.516;-2.768;2023-04-10T04:52:14;5.30;;;3.10;;
72813;SDS011;60945;48.516;-2.768;2023-04-10T04:54:40;4.70;;;3.25;;
72813;SDS011;60945;48.516;-2.768;2023-04-10T04:57:05;7.32;;;3.42;;
72813;SDS011;60945;48.516;-2.768;2023-04-10T04:59:31;5.07;;;3.20;;
72813;SDS011;60945;48.516;-2.768;2023-04-10T05:01:57;6.75;;;3.92;;
72813;SDS011;60945;48.516;-2.768;2023-04-10T05:04:22;7.28;;;3.60;;
72813;SDS011;60945;48.516;-2.768;2023-04-10T05:06:48;5.88;;;3.33;;
72813;SDS011;60945;48.516;-2.768;2023-04-10T05:09:14;6.43;;;3.78;;
72813;SDS011;60945;48.516;-2.768;2023-04-10T05:11:40;5.25;;;3.38;;
72813;SDS011;60945;48.516;-2.768;2023-04-10T05:14:05;6.82;;;3.72;;
72813;SDS011;60945;48.516;-2.768;2023-04-10T05:16:31;7.00;;;3.40;;
72813;SDS011;60945;48.516;-2.768;2023-04-10T05:18:57;5.38;;;3.60;;
72813;SDS011;60945;48.516;-2.768;2023-04-10T05:21:22;11.15;;;3.78;;
72813;SDS011;60945;48.516;-2.768;2023-04-10T05:23:48;7.75;;;3.97;;
72813;SDS011;60945;48.516;-2.768;2023-04-10T05:26:14;7.18;;;3.75;;
72813;SDS011;60945;48.516;-2.768;2023-04-10T05:28:40;6.18;;;3.55;;
72813;SDS011;60945;48.516;-2.768;2023-04-10T05:31:05;6.40;;;3.78;;
72813;SDS011;60945;48.516;-2.768;2023-04-10T05:33:31;5.75;;;3.63;;
72813;SDS011;60945;48.516;-2.768;2023-04-10T05:35:57;5.20;;;3.22;;
72813;SDS011;60945;48.516;-2.768;2023-04-10T05:38:22;8.07;;;4.20;;
72813;SDS011;60945;48.516;-2.768;2023-04-10T05:40:48;9.73;;;4.00;;
72813;SDS011;60945;48.516;-2.768;2023-04-10T05:43:14;7.70;;;4.28;;
72813;SDS011;60945;48.516;-2.768;2023-04-10T05:45:42;5.97;;;3.60;;
72813;SDS011;60945;48.516;-2.768;2023-04-10T05:48:09;6.57;;;3.60;;
72813;SDS011;60945;48.516;-2.768;2023-04-10T05:50:34;6.38;;;3.85;;
72813;SDS011;60945;48.516;-2.768;2023-04-10T05:53:00;6.50;;;3.17;;
72813;SDS011;60945;48.516;-2.768;2023-04-10T05:55:29;6.95;;;3.42;;
72813;SDS011;60945;48.516;-2.768;2023-04-10T05:57:56;8.82;;;3.67;;
72813;SDS011;60945;48.516;-2.768;2023-04-10T06:00:21;7.38;;;3.70;;
72813;SDS011;60945;48.516;-2.768;2023-04-10T06:02:47;7.38;;;2.97;;
72813;SDS011;60945;48.516;-2.768;2023-04-10T06:05:13;4.85;;;3.20;;
72813;SDS011;60945;48.516;-2.768;2023-04-10T06:07:39;4.40;;;2.47;;
72813;SDS011;60945;48.516;-2.768;2023-04-10T06:10:05;4.70;;;2.70;;
72813;SDS011;60945;48.516;-2.768;2023-04-10T06:12:31;6.43;;;2.50;;
72813;SDS011;60945;48.516;-2.768;2023-04-10T06:14:57;5.75;;;2.38;;
72813;SDS011;60945;48.516;-2.768;2023-04-10T06:17:22;3.47;;;2.17;;
72813;SDS011;60945;48.516;-2.768;2023-04-10T06:19:49;3.33;;;2.05;;
72813;SDS011;60945;48.516;-2.768;2023-04-10T06:22:15;4.20;;;2.35;;
72813;SDS011;60945;48.516;-2.768;2023-04-10T06:24:41;4.15;;;2.05;;
72813;SDS011;60945;48.516;-2.768;2023-04-10T06:27:06;6.03;;;2.20;;
72813;SDS011;60945;48.516;-2.768;2023-04-10T06:29:32;3.28;;;1.80;;
72813;SDS011;60945;48.516;-2.768;2023-04-10T06:31:58;6.43;;;2.05;;
72813;SDS011;60945;48.516;-2.768;2023-04-10T06:34:24;4.85;;;2.47;;
72813;SDS011;60945;48.516;-2.768;2023-04-10T06:36:50;4.25;;;2.33;;
72813;SDS011;60945;48.516;-2.768;2023-04-10T06:39:16;3.33;;;2.10;;
72813;SDS011;60945;48.516;-2.768;2023-04-10T06:41:41;4.80;;;1.90;;
72813;SDS011;60945;48.516;-2.768;2023-04-10T06:44:07;3.58;;;1.92;;
72813;SDS011;60945;48.516;-2.768;2023-04-10T06:46:33;3.50;;;1.90;;
72813;SDS011;60945;48.516;-2.768;2023-04-10T06:48:58;5.80;;;2.00;;
72813;SDS011;60945;48.516;-2.768;2023-04-10T06:51:24;4.68;;;2.03;;
72813;SDS011;60945;48.516;-2.768;2023-04-10T06:53:50;4.22;;;2.22;;
72813;SDS011;60945;48.516;-2.768;2023-04-10T06:56:15;3.72;;;1.70;;
72813;SDS011;60945;48.516;-2.768;2023-04-10T06:58:41;3.28;;;2.05;;
72813;SDS011;60945;48.516;-2.768;2023-04-10T07:01:06;3.78;;;2.15;;
72813;SDS011;60945;48.516;-2.768;2023-04-10T07:03:32;5.40;;;2.28;;
72813;SDS011;60945;48.516;-2.768;2023-04-10T07:05:58;4.60;;;2.10;;
72813;SDS011;60945;48.516;-2.768;2023-04-10T07:08:24;5.68;;;2.35;;
72813;SDS011;60945;48.516;-2.768;2023-04-10T07:10:50;4.18;;;1.92;;
72813;SDS011;60945;48.516;-2.768;2023-04-10T07:13:15;4.72;;;1.92;;
72813;SDS011;60945;48.516;-2.768;2023-04-10T07:15:41;4.70;;;1.95;;
72813;SDS011;60945;48.516;-2.768;2023-04-10T07:18:07;3.33;;;1.60;;
72813;SDS011;60945;48.516;-2.768;2023-04-10T07:20:32;4.75;;;1.67;;
72813;SDS011;60945;48.516;-2.768;2023-04-10T07:22:58;3.30;;;1.90;;
72813;SDS011;60945;48.516;-2.768;2023-04-10T07:25:23;4.55;;;1.42;;
72813;SDS011;60945;48.516;-2.768;2023-04-10T07:27:49;3.63;;;1.88;;
72813;SDS011;60945;48.516;-2.768;2023-04-10T07:30:15;3.67;;;1.58;;
72813;SDS011;60945;48.516;-2.768;2023-04-10T07:32:41;4.65;;;1.90;;
72813;SDS011;60945;48.516;-2.768;2023-04-10T07:35:07;3.85;;;1.70;;
72813;SDS011;60945;48.516;-2.768;2023-04-10T07:37:33;2.80;;;1.90;;
72813;SDS011;60945;48.516;-2.768;2023-04-10T07:39:58;6.32;;;1.80;;
72813;SDS011;60945;48.516;-2.768;2023-04-10T07:42:26;5.57;;;2.03;;
72813;SDS011;60945;48.516;-2.768;2023-04-10T07:44:51;3.20;;;1.85;;
72813;SDS011;60945;48.516;-2.768;2023-04-10T07:47:17;4.38;;;1.92;;
72813;SDS011;60945;48.516;-2.768;2023-04-10T07:49:43;5.18;;;2.03;;
72813;SDS011;60945;48.516;-2.768;2023-04-10T07:52:08;6.10;;;2.35;;
72813;SDS011;60945;48.516;-2.768;2023-04-10T07:54:34;5.32;;;2.20;;
72813;SDS011;60945;48.516;-2.768;2023-04-10T07:57:00;4.80;;;1.83;;
72813;SDS011;60945;48.516;-2.768;2023-04-10T07:59:26;4.18;;;2.17;;
72813;SDS011;60945;48.516;-2.768;2023-04-10T08:01:52;6.22;;;2.28;;
72813;SDS011;60945;48.516;-2.768;2023-04-10T08:04:18;4.93;;;2.10;;
72813;SDS011;60945;48.516;-2.768;2023-04-10T08:06:44;5.28;;;2.20;;
72813;SDS011;60945;48.516;-2.768;2023-04-10T08:09:10;6.10;;;2.10;;
72813;SDS011;60945;48.516;-2.768;2023-04-10T08:11:35;5.10;;;2.10;;
72813;SDS011;60945;48.516;-2.768;2023-04-10T08:14:04;6.93;;;2.30;;
72813;SDS011;60945;48.516;-2.768;2023-04-10T08:16:32;5.28;;;2.10;;
72813;SDS011;60945;48.516;-2.768;2023-04-10T08:18:59;3.20;;;1.75;;
72813;SDS011;60945;48.516;-2.768;2023-04-10T08:21:27;4.10;;;1.95;;
72813;SDS011;60945;48.516;-2.768;2023-04-10T08:23:54;6.75;;;2.00;;
72813;SDS011;60945;48.516;-2.768;2023-04-10T08:26:21;6.35;;;2.17;;
72813;SDS011;60945;48.516;-2.768;2023-04-10T08:28:47;4.05;;;2.13;;
72813;SDS011;60945;48.516;-2.768;2023-04-10T08:31:15;7.72;;;1.90;;
72813;SDS011;60945;48.516;-2.768;2023-04-10T08:33:41;2.92;;;1.80;;
72813;SDS011;60945;48.516;-2.768;2023-04-10T08:36:07;4.32;;;1.60;;
72813;SDS011;60945;48.516;-2.768;2023-04-10T08:38:34;4.57;;;1.50;;
72813;SDS011;60945;48.516;-2.768;2023-04-10T08:40:59;3.42;;;1.63;;
72813;SDS011;60945;48.516;-2.768;2023-04-10T08:43:25;4.80;;;1.50;;
72813;SDS011;60945;48.516;-2.768;2023-04-10T08:45:51;3.35;;;1.42;;
72813;SDS011;60945;48.516;-2.768;2023-04-10T08:48:17;3.53;;;1.33;;
72813;SDS011;60945;48.516;-2.768;2023-04-10T08:50:45;2.03;;;1.13;;
72813;SDS011;60945;48.516;-2.768;2023-04-10T08:53:12;3.15;;;1.23;;
72813;SDS011;60945;48.516;-2.768;2023-04-10T08:55:39;2.00;;;1.10;;
72813;SDS011;60945;48.516;-2.768;2023-04-10T08:58:05;3.35;;;1.20;;
72813;SDS011;60945;48.516;-2.768;2023-04-10T09:00:32;1.52;;;0.80;;
72813;SDS011;60945;48.516;-2.768;2023-04-10T09:02:59;1.67;;;0.77;;
72813;SDS011;60945;48.516;-2.768;2023-04-10T09:05:28;0.65;;;0.50;;
72813;SDS011;60945;48.516;-2.768;2023-04-10T09:07:54;0.85;;;0.82;;
72813;SDS011;60945;48.516;-2.768;2023-04-10T09:10:20;0.85;;;0.52;;
72813;SDS011;60945;48.516;-2.768;2023-04-10T09:12:46;0.98;;;0.55;;
72813;SDS011;60945;48.516;-2.768;2023-04-10T09:15:12;1.30;;;0.50;;
72813;SDS011;60945;48.516;-2.768;2023-04-10T09:17:55;1.35;;;0.75;;
72813;SDS011;60945;48.516;-2.768;2023-04-10T09:20:22;0.50;;;0.43;;
72813;SDS011;60945;48.516;-2.768;2023-04-10T09:22:49;0.90;;;0.40;;
72813;SDS011;60945;48.516;-2.768;2023-04-10T09:25:35;1.38;;;0.63;;
72813;SDS011;60945;48.516;-2.768;2023-04-10T09:28:03;1.20;;;0.50;;
72813;SDS011;60945;48.516;-2.768;2023-04-10T09:30:37;1.48;;;0.60;;
72813;SDS011;60945;48.516;-2.768;2023-04-10T09:35:57;0.90;;;0.50;;
72813;SDS011;60945;48.516;-2.768;2023-04-10T09:38:28;1.90;;;0.55;;
72813;SDS011;60945;48.516;-2.768;2023-04-10T09:40:54;0.73;;;0.40;;
72813;SDS011;60945;48.516;-2.768;2023-04-10T09:43:31;2.75;;;1.15;;
72813;SDS011;60945;48.516;-2.768;2023-04-10T09:45:56;1.00;;;0.50;;
72813;SDS011;60945;48.516;-2.768;2023-04-10T09:48:23;2.60;;;0.90;;
72813;SDS011;60945;48.516;-2.768;2023-04-10T09:50:50;1.67;;;0.70;;
72813;SDS011;60945;48.516;-2.768;2023-04-10T09:53:17;3.22;;;0.93;;
72813;SDS011;60945;48.516;-2.768;2023-04-10T09:55:44;2.22;;;0.75;;
72813;SDS011;60945;48.516;-2.768;2023-04-10T09:58:11;3.67;;;0.95;;
72813;SDS011;60945;48.516;-2.768;2023-04-10T10:03:06;2.35;;;1.02;;
72813;SDS011;60945;48.516;-2.768;2023-04-10T10:05:38;2.22;;;0.98;;
72813;SDS011;60945;48.516;-2.768;2023-04-10T10:08:09;2.20;;;0.80;;
72813;SDS011;60945;48.516;-2.768;2023-04-10T10:10:43;2.28;;;0.75;;
72813;SDS011;60945;48.516;-2.768;2023-04-10T10:13:14;3.17;;;1.00;;
72813;SDS011;60945;48.516;-2.768;2023-04-10T10:16:04;1.92;;;0.90;;
72813;SDS011;60945;48.516;-2.768;2023-04-10T10:21:21;2.78;;;1.13;;
72813;SDS011;60945;48.516;-2.768;2023-04-10T10:23:48;3.15;;;1.00;;
72813;SDS011;60945;48.516;-2.768;2023-04-10T10:26:18;3.80;;;1.10;;
72813;SDS011;60945;48.516;-2.768;2023-04-10T10:28:46;2.78;;;1.40;;
72813;SDS011;60945;48.516;-2.768;2023-04-10T10:31:12;3.17;;;1.58;;
72813;SDS011;60945;48.516;-2.768;2023-04-10T10:33:38;3.78;;;1.48;;
72813;SDS011;60945;48.516;-2.768;2023-04-10T10:36:05;4.55;;;1.58;;
72813;SDS011;60945;48.516;-2.768;2023-04-10T10:38:32;4.05;;;1.40;;
72813;SDS011;60945;48.516;-2.768;2023-04-10T10:43:52;3.70;;;1.10;;
72813;SDS011;60945;48.516;-2.768;2023-04-10T10:46:31;3.78;;;1.50;;
72813;SDS011;60945;48.516;-2.768;2023-04-10T10:49:05;4.47;;;1.80;;
72813;SDS011;60945;48.516;-2.768;2023-04-10T10:51:49;4.28;;;1.75;;
72813;SDS011;60945;48.516;-2.768;2023-04-10T10:54:31;4.63;;;1.90;;
72813;SDS011;60945;48.516;-2.768;2023-04-10T10:56:58;4.10;;;1.60;;
72813;SDS011;60945;48.516;-2.768;2023-04-10T11:02:13;5.75;;;1.52;;
72813;SDS011;60945;48.516;-2.768;2023-04-10T11:04:42;4.40;;;1.85;;
72813;SDS011;60945;48.516;-2.768;2023-04-10T11:07:09;5.80;;;1.90;;
72813;SDS011;60945;48.516;-2.768;2023-04-10T11:09:42;5.93;;;1.77;;
72813;SDS011;60945;48.516;-2.768;2023-04-10T11:12:17;3.78;;;1.90;;
72813;SDS011;60945;48.516;-2.768;2023-04-10T11:14:55;4.45;;;1.75;;
72813;SDS011;60945;48.516;-2.768;2023-04-10T11:17:55;4.68;;;1.73;;
72813;SDS011;60945;48.516;-2.768;2023-04-10T11:25:53;3.95;;;2.00;;
72813;SDS011;60945;48.516;-2.768;2023-04-10T11:31:31;5.68;;;1.90;;
72813;SDS011;60945;48.516;-2.768;2023-04-10T11:36:22;7.82;;;2.63;;
72813;SDS011;60945;48.516;-2.768;2023-04-10T11:41:40;9.98;;;2.50;;
72813;SDS011;60945;48.516;-2.768;2023-04-10T11:44:10;6.80;;;3.17;;
72813;SDS011;60945;48.516;-2.768;2023-04-10T11:46:46;6.10;;;3.10;;
72813;SDS011;60945;48.516;-2.768;2023-04-10T11:49:18;8.57;;;3.00;;
72813;SDS011;60945;48.516;-2.768;2023-04-10T11:51:46;5.20;;;2.20;;
72813;SDS011;60945;48.516;-2.768;2023-04-10T11:54:14;8.88;;;2.50;;
72813;SDS011;60945;48.516;-2.768;2023-04-10T11:57:03;7.38;;;1.95;;
72813;SDS011;60945;48.516;-2.768;2023-04-10T11:59:31;8.63;;;2.50;;
72813;SDS011;60945;48.516;-2.768;2023-04-10T12:02:07;8.45;;;3.20;;
72813;SDS011;60945;48.516;-2.768;2023-04-10T12:04:35;6.97;;;1.80;;
72813;SDS011;60945;48.516;-2.768;2023-04-10T12:07:01;7.88;;;2.38;;
72813;SDS011;60945;48.516;-2.768;2023-04-10T12:09:27;5.50;;;2.13;;
72813;SDS011;60945;48.516;-2.768;2023-04-10T12:12:02;3.67;;;1.67;;
72813;SDS011;60945;48.516;-2.768;2023-04-10T12:14:33;9.95;;;2.28;;
72813;SDS011;60945;48.516;-2.768;2023-04-10T12:17:05;7.22;;;2.40;;
72813;SDS011;60945;48.516;-2.768;2023-04-10T12:19:32;6.95;;;1.95;;
72813;SDS011;60945;48.516;-2.768;2023-04-10T12:21:59;5.85;;;1.70;;
72813;SDS011;60945;48.516;-2.768;2023-04-10T12:24:44;7.68;;;2.50;;
72813;SDS011;60945;48.516;-2.768;2023-04-10T12:29:48;8.05;;;2.13;;
72813;SDS011;60945;48.516;-2.768;2023-04-10T12:32:16;5.95;;;2.20;;
72813;SDS011;60945;48.516;-2.768;2023-04-10T12:34:48;5.18;;;2.20;;
72813;SDS011;60945;48.516;-2.768;2023-04-10T12:37:18;7.20;;;2.78;;
72813;SDS011;60945;48.516;-2.768;2023-04-10T12:39:44;6.35;;;2.80;;
72813;SDS011;60945;48.516;-2.768;2023-04-10T12:42:17;7.40;;;2.80;;
72813;SDS011;60945;48.516;-2.768;2023-04-10T12:44:57;8.00;;;2.75;;
72813;SDS011;60945;48.516;-2.768;2023-04-10T12:47:25;6.72;;;2.70;;
72813;SDS011;60945;48.516;-2.768;2023-04-10T12:50:04;6.63;;;2.65;;
72813;SDS011;60945;48.516;-2.768;2023-04-10T12:52:31;7.13;;;2.90;;
72813;SDS011;60945;48.516;-2.768;2023-04-10T12:55:14;7.30;;;2.70;;
72813;SDS011;60945;48.516;-2.768;2023-04-10T12:57:44;6.00;;;2.50;;
72813;SDS011;60945;48.516;-2.768;2023-04-10T13:00:15;8.80;;;3.20;;
72813;SDS011;60945;48.516;-2.768;2023-04-10T13:02:42;7.32;;;2.80;;
72813;SDS011;60945;48.516;-2.768;2023-04-10T13:05:09;8.18;;;2.40;;
72813;SDS011;60945;48.516;-2.768;2023-04-10T13:07:35;9.98;;;2.90;;
72813;SDS011;60945;48.516;-2.768;2023-04-10T13:10:02;6.38;;;2.80;;
72813;SDS011;60945;48.516;-2.768;2023-04-10T13:12:28;8.20;;;2.80;;
72813;SDS011;60945;48.516;-2.768;2023-04-10T13:14:54;7.15;;;2.40;;
72813;SDS011;60945;48.516;-2.768;2023-04-10T13:17:21;6.35;;;2.40;;
72813;SDS011;60945;48.516;-2.768;2023-04-10T13:19:48;9.20;;;2.20;;
72813;SDS011;60945;48.516;-2.768;2023-04-10T13:22:14;5.93;;;1.98;;
72813;SDS011;60945;48.516;-2.768;2023-04-10T13:24:40;5.15;;;1.88;;
72813;SDS011;60945;48.516;-2.768;2023-04-10T13:27:07;7.25;;;2.47;;
72813;SDS011;60945;48.516;-2.768;2023-04-10T13:29:33;8.43;;;2.65;;
72813;SDS011;60945;48.516;-2.768;2023-04-10T13:31:59;6.88;;;2.38;;
72813;SDS011;60945;48.516;-2.768;2023-04-10T13:34:28;5.38;;;2.22;;
72813;SDS011;60945;48.516;-2.768;2023-04-10T13:36:53;5.88;;;2.20;;
72813;SDS011;60945;48.516;-2.768;2023-04-10T13:39:19;8.07;;;2.67;;
72813;SDS011;60945;48.516;-2.768;2023-04-10T13:41:45;6.32;;;2.13;;
72813;SDS011;60945;48.516;-2.768;2023-04-10T13:44:10;6.70;;;2.67;;
72813;SDS011;60945;48.516;-2.768;2023-04-10T13:46:36;4.65;;;2.28;;
72813;SDS011;60945;48.516;-2.768;2023-04-10T13:49:02;5.80;;;2.60;;
72813;SDS011;60945;48.516;-2.768;2023-04-10T13:51:27;4.63;;;2.53;;
72813;SDS011;60945;48.516;-2.768;2023-04-10T13:53:53;4.63;;;2.25;;
72813;SDS011;60945;48.516;-2.768;2023-04-10T13:56:19;4.57;;;2.60;;
72813;SDS011;60945;48.516;-2.768;2023-04-10T13:58:45;5.55;;;2.47;;
72813;SDS011;60945;48.516;-2.768;2023-04-10T14:01:11;5.45;;;2.42;;
72813;SDS011;60945;48.516;-2.768;2023-04-10T14:03:37;4.50;;;2.22;;
72813;SDS011;60945;48.516;-2.768;2023-04-10T14:06:03;6.45;;;2.30;;
72813;SDS011;60945;48.516;-2.768;2023-04-10T14:08:28;6.30;;;2.10;;
72813;SDS011;60945;48.516;-2.768;2023-04-10T14:10:54;5.60;;;2.20;;
72813;SDS011;60945;48.516;-2.768;2023-04-10T14:13:20;5.63;;;1.90;;
72813;SDS011;60945;48.516;-2.768;2023-04-10T14:15:46;3.97;;;2.40;;
72813;SDS011;60945;48.516;-2.768;2023-04-10T14:18:12;4.30;;;2.10;;
72813;SDS011;60945;48.516;-2.768;2023-04-10T14:20:41;6.93;;;2.40;;
72813;SDS011;60945;48.516;-2.768;2023-04-10T14:23:07;6.53;;;2.42;;
72813;SDS011;60945;48.516;-2.768;2023-04-10T14:25:33;6.03;;;2.60;;
72813;SDS011;60945;48.516;-2.768;2023-04-10T14:27:58;5.38;;;2.53;;
72813;SDS011;60945;48.516;-2.768;2023-04-10T14:30:24;6.35;;;2.20;;
72813;SDS011;60945;48.516;-2.768;2023-04-10T14:32:54;6.85;;;2.65;;
72813;SDS011;60945;48.516;-2.768;2023-04-10T14:35:20;6.10;;;2.30;;
72813;SDS011;60945;48.516;-2.768;2023-04-10T14:37:46;6.30;;;2.30;;
72813;SDS011;60945;48.516;-2.768;2023-04-10T14:40:12;5.90;;;2.40;;
72813;SDS011;60945;48.516;-2.768;2023-04-10T14:42:37;6.80;;;2.70;;
72813;SDS011;60945;48.516;-2.768;2023-04-10T14:45:03;8.32;;;2.78;;
72813;SDS011;60945;48.516;-2.768;2023-04-10T14:47:30;4.85;;;2.60;;
72813;SDS011;60945;48.516;-2.768;2023-04-10T14:49:56;6.93;;;3.30;;
72813;SDS011;60945;48.516;-2.768;2023-04-10T14:52:22;4.75;;;2.75;;
72813;SDS011;60945;48.516;-2.768;2023-04-10T14:54:47;3.88;;;2.17;;
72813;SDS011;60945;48.516;-2.768;2023-04-10T14:57:13;5.95;;;2.30;;
72813;SDS011;60945;48.516;-2.768;2023-04-10T14:59:41;5.15;;;1.98;;
72813;SDS011;60945;48.516;-2.768;2023-04-10T15:02:06;5.88;;;2.15;;
72813;SDS011;60945;48.516;-2.768;2023-04-10T15:04:32;6.75;;;2.35;;
72813;SDS011;60945;48.516;-2.768;2023-04-10T15:06:58;7.00;;;3.03;;
72813;SDS011;60945;48.516;-2.768;2023-04-10T15:09:23;4.82;;;2.10;;
72813;SDS011;60945;48.516;-2.768;2023-04-10T15:11:49;6.10;;;2.30;;
72813;SDS011;60945;48.516;-2.768;2023-04-10T15:14:15;4.05;;;1.77;;
72813;SDS011;60945;48.516;-2.768;2023-04-10T15:16:41;7.03;;;2.60;;
72813;SDS011;60945;48.516;-2.768;2023-04-10T15:19:06;5.10;;;2.08;;